Time;durP1;ratioP1;P1;durP2;ratioP2;P2;SDS_P1;SDS_P2;PMS_P1;PMS_P2;Temp;Humidity;BMP_temperature;BMP_pressure;BME280_temperature;BME280_humidity;BME280_pressure;Samples;Min_cycle;Max_cycle;Signal;HPM_P1;HPM_P2
2021/12/15 00:00:20;;;;;;;;;;;7.70;97.00;;;;;;5037833;28;19999;-72
2021/12/15 00:02:46;;;;;;;;;;;7.70;97.00;;;;;;5037779;28;19966;-73
2021/12/15 00:05:20;;;;;;;;;;;7.60;96.90;;;;;;5037658;28;19909;-73
2021/12/15 00:07:46;;;;;;;;;;;7.60;96.90;;;;;;5037795;28;19975;-72
2021/12/15 00:10:12;;;;;;;;;;;7.60;96.90;;;;;;5037238;28;19905;-72
2021/12/15 00:12:37;;;;;;;;;;;7.60;96.90;;;;;;5035970;28;19919;-73
2021/12/15 00:15:03;;;;;;;;;;;7.60;96.90;;;;;;5036225;28;19936;-72
2021/12/15 00:17:29;;;;;;;;;;;7.50;96.90;;;;;;5036267;28;19909;-72
2021/12/15 00:19:55;;;;;;;;;;;7.50;96.80;;;;;;5037446;28;19940;-72
2021/12/15 00:22:21;;;;;;;;;;;7.50;96.80;;;;;;5037413;28;19905;-72
2021/12/15 00:24:46;;;;;;;;;;;7.50;96.80;;;;;;5036968;28;19905;-72
2021/12/15 00:27:12;;;;;;;;;;;7.50;96.70;;;;;;5040189;28;19954;-72
2021/12/15 00:29:38;;;;;;;;;;;7.50;96.60;;;;;;5040987;28;19905;-73
2021/12/15 00:32:04;;;;;;;;;;;7.50;96.60;;;;;;5039747;28;19909;-72
2021/12/15 00:34:34;;;;;;;;;;;7.50;96.60;;;;;;5041181;28;20335;-73
2021/12/15 00:37:00;;;;;;;;;;;7.50;96.50;;;;;;5030739;28;19945;-72
2021/12/15 00:39:27;;;;;;;;;;;7.50;96.50;;;;;;5038727;28;19928;-73
2021/12/15 00:41:52;;;;;;;;;;;7.50;96.50;;;;;;5041312;28;19904;-73
2021/12/15 00:44:18;;;;;;;;;;;7.40;96.50;;;;;;5039104;28;19911;-73
2021/12/15 00:46:45;;;;;;;;;;;7.40;96.50;;;;;;5041223;28;19981;-72
2021/12/15 00:49:10;;;;;;;;;;;7.40;96.50;;;;;;5040821;28;19909;-72
2021/12/15 00:51:37;;;;;;;;;;;7.40;96.50;;;;;;5041118;28;20044;-73
2021/12/15 00:54:03;;;;;;;;;;;7.40;96.50;;;;;;5040656;28;19908;-73
2021/12/15 00:56:28;;;;;;;;;;;7.40;96.50;;;;;;5040968;28;19905;-72
2021/12/15 00:58:54;;;;;;;;;;;7.40;96.50;;;;;;5040426;28;19936;-73
2021/12/15 01:01:20;;;;;;;;;;;7.40;96.50;;;;;;5040856;28;19911;-72
2021/12/15 01:03:46;;;;;;;;;;;7.40;96.70;;;;;;5040678;28;19905;-72
2021/12/15 01:06:16;;;;;;;;;;;7.40;96.50;;;;;;5039461;28;19912;-73
2021/12/15 01:08:45;;;;;;;;;;;7.40;96.50;;;;;;5040571;28;19905;-72
2021/12/15 01:11:24;;;;;;;;;;;7.30;96.40;;;;;;5040605;28;19954;-72
2021/12/15 01:22:25;;;;;;;;;;;7.40;96.50;;;;;;5030256;28;19905;-72
2021/12/15 01:24:53;;;;;;;;;;;7.40;96.50;;;;;;5029286;28;19946;-72
2021/12/15 01:27:19;;;;;;;;;;;7.40;96.40;;;;;;5038900;28;19912;-72
2021/12/15 01:29:45;;;;;;;;;;;7.40;96.40;;;;;;5039975;28;19905;-72
2021/12/15 01:32:10;;;;;;;;;;;7.40;96.40;;;;;;5038945;28;19916;-72
2021/12/15 01:34:36;;;;;;;;;;;7.40;96.40;;;;;;5038690;28;19905;-72
2021/12/15 01:37:02;;;;;;;;;;;7.40;96.40;;;;;;5028073;28;19905;-72
2021/12/15 01:39:28;;;;;;;;;;;7.40;96.40;;;;;;5037721;28;19924;-72
2021/12/15 01:41:55;;;;;;;;;;;7.40;96.40;;;;;;5040048;28;20360;-72
2021/12/15 01:46:56;;;;;;;;;;;7.50;96.40;;;;;;5040228;28;20256;-72
2021/12/15 01:49:31;;;;;;;;;;;7.50;96.40;;;;;;5039878;28;19905;-72
2021/12/15 01:51:58;;;;;;;;;;;7.50;96.40;;;;;;5039630;28;19905;-72
2021/12/15 01:54:24;;;;;;;;;;;7.50;96.30;;;;;;5040293;28;19976;-72
2021/12/15 01:56:50;;;;;;;;;;;7.50;96.30;;;;;;5039687;28;19974;-73
2021/12/15 01:59:17;;;;;;;;;;;7.50;96.30;;;;;;5038228;28;19905;-72
2021/12/15 02:01:43;;;;;;;;;;;7.50;96.30;;;;;;5039582;28;19905;-73
2021/12/15 02:04:09;;;;;;;;;;;7.50;96.30;;;;;;5039743;28;19927;-72
2021/12/15 02:06:34;;;;;;;;;;;7.50;96.30;;;;;;5039420;28;20058;-72
2021/12/15 02:09:01;;;;;;;;;;;7.50;96.30;;;;;;5039548;28;19959;-72
2021/12/15 02:11:26;;;;;;;;;;;7.60;96.30;;;;;;5039336;28;19905;-72
2021/12/15 02:13:53;;;;;;;;;;;7.60;96.30;;;;;;5039130;28;19909;-72
2021/12/15 02:16:19;;;;;;;;;;;7.60;96.30;;;;;;5039436;28;19944;-72
2021/12/15 02:18:45;;;;;;;;;;;7.60;96.30;;;;;;5039548;28;19905;-73
2021/12/15 02:21:14;;;;;;;;;;;7.60;96.30;;;;;;5039210;28;20004;-72
2021/12/15 02:23:45;;;;;;;;;;;7.60;96.30;;;;;;5037822;28;19972;-73
2021/12/15 02:26:14;;;;;;;;;;;7.60;96.30;;;;;;5037790;28;19911;-72
2021/12/15 02:28:40;;;;;;;;;;;7.60;96.30;;;;;;5038958;28;19905;-72
2021/12/15 02:31:25;;;;;;;;;;;7.60;96.20;;;;;;5037790;28;19912;-72
2021/12/15 02:34:01;;;;;;;;;;;7.60;96.20;;;;;;5038929;28;19909;-72
2021/12/15 02:39:12;;;;;;;;;;;7.60;96.20;;;;;;5034516;28;19920;-73
2021/12/15 02:41:38;;;;;;;;;;;7.60;96.20;;;;;;5039347;28;20268;-72
2021/12/15 02:44:06;;;;;;;;;;;7.60;96.20;;;;;;5035961;28;19916;-73
2021/12/15 02:46:33;;;;;;;;;;;7.70;96.20;;;;;;5038910;28;19905;-72
2021/12/15 02:48:59;;;;;;;;;;;7.60;96.20;;;;;;5038648;28;19905;-72
2021/12/15 02:51:26;;;;;;;;;;;7.60;96.20;;;;;;5038946;28;19911;-72
2021/12/15 02:53:52;;;;;;;;;;;7.70;96.20;;;;;;5038481;28;20763;-72
2021/12/15 02:56:18;;;;;;;;;;;7.70;96.10;;;;;;5038849;28;19912;-72
2021/12/15 02:58:51;;;;;;;;;;;7.70;96.10;;;;;;5038223;28;19909;-72
2021/12/15 03:01:26;;;;;;;;;;;7.70;96.10;;;;;;5038860;28;19905;-72
2021/12/15 03:06:47;;;;;;;;;;;7.70;96.10;;;;;;5038576;28;20300;-72
2021/12/15 03:15:30;;;;;;;;;;;7.70;96.00;;;;;;5038307;28;19995;-73
2021/12/15 03:17:18;;;;;;;;;;;7.60;96.00;;;;;;5023480;28;19987;-72
2021/12/15 03:19:43;;;;;;;;;;;7.60;96.00;;;;;;5036887;28;19959;-73
2021/12/15 03:22:09;;;;;;;;;;;7.60;96.00;;;;;;5038290;28;19912;-72
2021/12/15 03:24:35;;;;;;;;;;;7.60;95.90;;;;;;5038004;28;20064;-72
2021/12/15 03:27:09;;;;;;;;;;;7.60;95.90;;;;;;5038528;28;19972;-72
2021/12/15 03:33:28;;;;;;;;;;;7.60;95.90;;;;;;5038024;28;19982;-72
2021/12/15 03:37:40;;;;;;;;;;;7.60;95.90;;;;;;5024592;28;19917;-73
2021/12/15 03:40:15;;;;;;;;;;;7.60;95.90;;;;;;5037910;28;19924;-72
2021/12/15 03:42:44;;;;;;;;;;;7.60;95.90;;;;;;5037483;28;19905;-72
2021/12/15 03:45:13;;;;;;;;;;;7.60;95.90;;;;;;5036035;28;19959;-72
2021/12/15 03:47:41;;;;;;;;;;;7.70;95.90;;;;;;5036681;28;19905;-72
2021/12/15 03:50:08;;;;;;;;;;;7.60;95.80;;;;;;5038006;28;20386;-72
2021/12/15 03:52:34;;;;;;;;;;;7.60;95.80;;;;;;5037560;28;19941;-72
2021/12/15 03:55:00;;;;;;;;;;;7.60;95.80;;;;;;5037741;28;19909;-72
2021/12/15 03:57:26;;;;;;;;;;;7.60;95.80;;;;;;5037306;28;19909;-72
2021/12/15 03:59:53;;;;;;;;;;;7.60;95.80;;;;;;5039135;28;19912;-72
2021/12/15 04:02:19;;;;;;;;;;;7.60;95.80;;;;;;5042866;28;19912;-72
2021/12/15 04:04:47;;;;;;;;;;;7.60;95.80;;;;;;5043025;28;19905;-72
2021/12/15 04:07:14;;;;;;;;;;;7.60;95.80;;;;;;5031437;28;19968;-72
2021/12/15 04:09:40;;;;;;;;;;;7.60;95.80;;;;;;5043869;28;20794;-72
2021/12/15 04:12:06;;;;;;;;;;;7.60;95.80;;;;;;5042653;28;20336;-72
2021/12/15 04:14:42;;;;;;;;;;;7.60;95.80;;;;;;5043929;28;19971;-72
2021/12/15 04:17:26;;;;;;;;;;;7.60;95.80;;;;;;5044441;28;19911;-72
2021/12/15 04:19:54;;;;;;;;;;;7.60;95.80;;;;;;5044056;28;19952;-72
2021/12/15 04:22:19;;;;;;;;;;;7.60;95.80;;;;;;5044229;28;19912;-72
2021/12/15 04:24:45;;;;;;;;;;;7.60;95.80;;;;;;5043926;28;19905;-72
2021/12/15 04:27:11;;;;;;;;;;;7.60;95.80;;;;;;5043993;28;19959;-72
2021/12/15 04:29:38;;;;;;;;;;;7.60;95.70;;;;;;5043778;28;19905;-72
2021/12/15 04:32:06;;;;;;;;;;;7.60;95.70;;;;;;5043773;28;19909;-72
2021/12/15 04:34:32;;;;;;;;;;;7.60;95.80;;;;;;5043783;28;19995;-72
2021/12/15 04:36:58;;;;;;;;;;;7.60;95.70;;;;;;5033264;28;19941;-73
2021/12/15 04:39:25;;;;;;;;;;;7.60;95.80;;;;;;5041206;28;19921;-73
2021/12/15 04:41:53;;;;;;;;;;;7.60;95.80;;;;;;5042655;28;19956;-72
2021/12/15 04:44:20;;;;;;;;;;;7.60;95.80;;;;;;5041762;28;19905;-72
2021/12/15 04:46:57;;;;;;;;;;;7.60;95.70;;;;;;5043666;28;19952;-72
2021/12/15 04:49:22;;;;;;;;;;;7.60;95.70;;;;;;5043882;28;19912;-73
2021/12/15 04:51:48;;;;;;;;;;;7.60;95.70;;;;;;5043917;28;19905;-72
2021/12/15 04:54:15;;;;;;;;;;;7.60;95.70;;;;;;5043816;28;19982;-72
2021/12/15 04:56:41;;;;;;;;;;;7.60;95.80;;;;;;5043879;28;19909;-72
2021/12/15 04:59:06;;;;;;;;;;;7.60;95.70;;;;;;5043654;28;20579;-72
2021/12/15 05:01:32;;;;;;;;;;;7.60;95.70;;;;;;5042410;28;19912;-72
2021/12/15 05:03:58;;;;;;;;;;;7.60;95.70;;;;;;5042497;28;19913;-72
2021/12/15 05:06:23;;;;;;;;;;;7.60;95.70;;;;;;5043774;28;19996;-72
2021/12/15 05:08:49;;;;;;;;;;;7.60;95.70;;;;;;5043679;28;19905;-72
2021/12/15 05:11:15;;;;;;;;;;;7.60;95.60;;;;;;5041057;28;19968;-72
2021/12/15 05:13:41;;;;;;;;;;;7.60;95.60;;;;;;5040385;28;19948;-72
2021/12/15 05:16:06;;;;;;;;;;;7.50;95.60;;;;;;5040568;28;20341;-72
2021/12/15 05:18:33;;;;;;;;;;;7.50;95.60;;;;;;5040780;28;19908;-72
2021/12/15 05:20:59;;;;;;;;;;;7.50;95.60;;;;;;5039068;28;19912;-73
2021/12/15 05:23:31;;;;;;;;;;;7.50;95.60;;;;;;5040562;28;19912;-73
2021/12/15 05:25:58;;;;;;;;;;;7.50;95.60;;;;;;5040134;28;19909;-72
2021/12/15 05:28:23;;;;;;;;;;;7.50;95.60;;;;;;5040349;28;19955;-72
2021/12/15 05:30:50;;;;;;;;;;;7.50;95.60;;;;;;5040158;28;19940;-72
2021/12/15 05:33:15;;;;;;;;;;;7.40;95.60;;;;;;5040191;28;19909;-72
2021/12/15 05:35:41;;;;;;;;;;;7.40;95.60;;;;;;5038570;28;19905;-70
2021/12/15 05:38:07;;;;;;;;;;;7.40;95.60;;;;;;5026988;28;19912;-74
2021/12/15 05:40:33;;;;;;;;;;;7.50;95.70;;;;;;5039910;28;19924;-73
2021/12/15 05:42:59;;;;;;;;;;;7.50;95.70;;;;;;5039803;28;19915;-73
2021/12/15 05:45:26;;;;;;;;;;;7.50;95.70;;;;;;5037835;28;19959;-73
2021/12/15 05:47:52;;;;;;;;;;;7.50;95.70;;;;;;5038610;28;19905;-73
2021/12/15 05:50:18;;;;;;;;;;;7.40;95.60;;;;;;5038514;28;19911;-74
2021/12/15 05:52:44;;;;;;;;;;;7.40;95.60;;;;;;5039827;28;19913;-75
2021/12/15 05:55:12;;;;;;;;;;;7.50;95.70;;;;;;5038292;28;19912;-77
2021/12/15 05:57:38;;;;;;;;;;;7.40;95.70;;;;;;5038493;28;19963;-80
2021/12/15 06:00:06;;;;;;;;;;;7.40;95.70;;;;;;5038397;28;19905;-74
2021/12/15 06:02:31;;;;;;;;;;;7.50;95.70;;;;;;5039745;28;19905;-75
2021/12/15 06:04:57;;;;;;;;;;;7.50;95.70;;;;;;5039613;28;19912;-75
2021/12/15 06:07:23;;;;;;;;;;;7.50;95.70;;;;;;5039585;28;20007;-73
2021/12/15 06:09:48;;;;;;;;;;;7.50;95.70;;;;;;5039190;28;19914;-73
2021/12/15 06:12:14;;;;;;;;;;;7.50;95.60;;;;;;5039156;28;20326;-73
2021/12/15 06:14:42;;;;;;;;;;;7.50;95.60;;;;;;5039409;28;19912;-79
2021/12/15 06:17:09;;;;;;;;;;;7.50;95.60;;;;;;5038645;28;19905;-74
2021/12/15 06:19:35;;;;;;;;;;;7.40;95.50;;;;;;5039336;28;19912;-78
2021/12/15 06:22:00;;;;;;;;;;;7.40;95.50;;;;;;5037865;28;19907;-79
2021/12/15 06:24:26;;;;;;;;;;;7.40;95.50;;;;;;5038935;28;19933;-80
2021/12/15 06:26:52;;;;;;;;;;;7.40;95.50;;;;;;5038267;28;20027;-80
2021/12/15 06:29:18;;;;;;;;;;;7.40;95.60;;;;;;5038799;28;19905;-81
2021/12/15 06:31:44;;;;;;;;;;;7.40;95.60;;;;;;5038038;28;19905;-81
2021/12/15 06:34:09;;;;;;;;;;;7.40;95.60;;;;;;5038889;28;19917;-81
2021/12/15 06:36:35;;;;;;;;;;;7.40;95.60;;;;;;5031446;28;19965;-80
2021/12/15 06:39:02;;;;;;;;;;;7.40;95.60;;;;;;5031701;28;19944;-81
2021/12/15 06:41:28;;;;;;;;;;;7.40;95.60;;;;;;5039206;28;20292;-81
2021/12/15 06:43:56;;;;;;;;;;;7.40;95.70;;;;;;5036741;28;19909;-82
2021/12/15 07:00:22;;;;;;;;;;;7.40;95.60;;;;;;5015214;28;20399;-82
2021/12/15 07:02:48;;;;;;;;;;;7.40;95.60;;;;;;5034229;28;19913;-82
2021/12/15 07:05:14;;;;;;;;;;;7.40;95.50;;;;;;5037110;28;19909;-82
2021/12/15 07:07:41;;;;;;;;;;;7.40;95.50;;;;;;5037196;28;19913;-82
2021/12/15 07:10:08;;;;;;;;;;;7.40;95.50;;;;;;5037105;28;19905;-82
2021/12/15 07:12:34;;;;;;;;;;;7.40;95.50;;;;;;5038005;28;19913;-82
2021/12/15 07:14:59;;;;;;;;;;;7.40;95.50;;;;;;5036936;28;19985;-82
2021/12/15 07:17:27;;;;;;;;;;;7.40;95.80;;;;;;5038501;28;19968;-82
2021/12/15 07:22:43;;;;;;;;;;;7.40;95.50;;;;;;5038342;28;19955;-83
2021/12/15 07:25:10;;;;;;;;;;;7.40;95.50;;;;;;5024804;28;19988;-83
2021/12/15 07:27:36;;;;;;;;;;;7.40;95.50;;;;;;5037785;28;19905;-83
2021/12/15 07:30:03;;;;;;;;;;;7.40;95.50;;;;;;5038160;28;19912;-83
2021/12/15 07:32:28;;;;;;;;;;;7.40;95.50;;;;;;5037921;28;19916;-83
2021/12/15 07:34:54;;;;;;;;;;;7.40;95.50;;;;;;5037637;28;19909;-82
2021/12/15 07:37:20;;;;;;;;;;;7.40;95.50;;;;;;5024572;28;19912;-83
2021/12/15 07:39:54;;;;;;;;;;;7.40;95.50;;;;;;5037826;28;19923;-83
2021/12/15 07:42:30;;;;;;;;;;;7.40;95.40;;;;;;5037569;28;19909;-82
2021/12/15 07:44:55;;;;;;;;;;;7.40;95.40;;;;;;5034335;28;19905;-83
2021/12/15 07:47:21;;;;;;;;;;;7.40;95.40;;;;;;5037716;28;20419;-83
2021/12/15 07:49:47;;;;;;;;;;;7.40;95.40;;;;;;5038148;28;19906;-82
2021/12/15 07:52:12;;;;;;;;;;;7.40;95.40;;;;;;5037546;28;19948;-83
2021/12/15 07:54:38;;;;;;;;;;;7.40;95.30;;;;;;5036400;28;19905;-82
2021/12/15 07:57:05;;;;;;;;;;;7.40;95.30;;;;;;5037381;28;19909;-82
2021/12/15 07:59:31;;;;;;;;;;;7.40;95.30;;;;;;5037934;28;19911;-83
2021/12/15 08:01:57;;;;;;;;;;;7.40;95.60;;;;;;5037593;28;19905;-83
2021/12/15 08:04:22;;;;;;;;;;;7.40;95.30;;;;;;5037748;28;20320;-82
2021/12/15 08:06:48;;;;;;;;;;;7.40;95.30;;;;;;5037565;28;19947;-83
2021/12/15 08:09:14;;;;;;;;;;;7.40;95.30;;;;;;5037596;28;19951;-82
2021/12/15 08:11:40;;;;;;;;;;;7.40;95.30;;;;;;5037753;28;19937;-82
2021/12/15 08:14:06;;;;;;;;;;;7.40;95.30;;;;;;5037311;28;19909;-82
2021/12/15 08:16:33;;;;;;;;;;;7.40;95.40;;;;;;5037466;28;19905;-83
2021/12/15 08:18:58;;;;;;;;;;;7.40;95.40;;;;;;5037617;28;19958;-82
2021/12/15 08:21:24;;;;;;;;;;;7.40;95.40;;;;;;5037450;28;19992;-82
2021/12/15 08:23:49;;;;;;;;;;;7.40;95.40;;;;;;5037367;28;19914;-82
2021/12/15 08:26:15;;;;;;;;;;;7.40;95.40;;;;;;5037344;28;19912;-82
2021/12/15 08:28:41;;;;;;;;;;;7.40;95.40;;;;;;5037249;28;20364;-82
2021/12/15 08:31:07;;;;;;;;;;;7.40;95.40;;;;;;5036219;28;19937;-82
2021/12/15 08:33:33;;;;;;;;;;;7.40;95.40;;;;;;5037418;28;19963;-83
2021/12/15 08:36:01;;;;;;;;;;;7.40;95.40;;;;;;5034725;28;20005;-83
2021/12/15 08:38:29;;;;;;;;;;;7.40;95.30;;;;;;5027091;28;19905;-83
2021/12/15 08:40:55;;;;;;;;;;;7.40;95.30;;;;;;5037070;28;19924;-83
2021/12/15 08:43:23;;;;;;;;;;;7.40;95.30;;;;;;5037072;28;19928;-82
2021/12/15 08:46:08;;;;;;;;;;;7.40;95.30;;;;;;5036523;28;20003;-82
2021/12/15 08:48:35;;;;;;;;;;;7.40;95.30;;;;;;5041001;28;19916;-82
2021/12/15 08:51:02;;;;;;;;;;;7.40;95.30;;;;;;5041117;28;19905;-83
2021/12/15 08:53:28;;;;;;;;;;;7.40;95.30;;;;;;5041002;28;20386;-82
2021/12/15 08:55:53;;;;;;;;;;;7.40;95.30;;;;;;5039890;28;19905;-83
2021/12/15 08:58:20;;;;;;;;;;;7.40;95.30;;;;;;5040882;28;19912;-83
2021/12/15 09:00:47;;;;;;;;;;;7.40;95.30;;;;;;5041091;28;19905;-83
2021/12/15 09:03:13;;;;;;;;;;;7.40;95.30;;;;;;5040861;28;19909;-83
2021/12/15 09:05:40;;;;;;;;;;;7.40;95.30;;;;;;5040863;28;20383;-83
2021/12/15 09:08:07;;;;;;;;;;;7.40;95.30;;;;;;5040694;28;19912;-83
2021/12/15 09:10:33;;;;;;;;;;;7.40;95.30;;;;;;5040387;28;19905;-83
2021/12/15 09:13:00;;;;;;;;;;;7.50;95.40;;;;;;5040201;28;19916;-83
2021/12/15 09:15:25;;;;;;;;;;;7.50;95.30;;;;;;5040720;28;20003;-83
2021/12/15 09:17:52;;;;;;;;;;;7.50;95.30;;;;;;5040401;28;19940;-83
2021/12/15 09:20:19;;;;;;;;;;;7.50;95.30;;;;;;5040597;28;19909;-83
2021/12/15 09:22:45;;;;;;;;;;;7.50;95.30;;;;;;5040266;28;20279;-83
2021/12/15 09:25:12;;;;;;;;;;;7.50;95.30;;;;;;5040349;28;19905;-84
2021/12/15 09:27:39;;;;;;;;;;;7.50;95.20;;;;;;5038705;28;19913;-84
2021/12/15 09:30:07;;;;;;;;;;;7.50;95.20;;;;;;5039062;28;19905;-83
2021/12/15 09:32:32;;;;;;;;;;;7.50;95.20;;;;;;5039954;28;19913;-83
2021/12/15 09:34:58;;;;;;;;;;;7.50;95.10;;;;;;5040265;28;19959;-83
2021/12/15 09:37:24;;;;;;;;;;;7.50;95.20;;;;;;5026832;28;20372;-83
2021/12/15 09:39:50;;;;;;;;;;;7.50;95.10;;;;;;5040286;28;20364;-83
2021/12/15 09:42:19;;;;;;;;;;;7.50;95.00;;;;;;5038539;28;19905;-83
2021/12/15 09:44:46;;;;;;;;;;;7.50;95.00;;;;;;5036786;28;19912;-83
2021/12/15 09:47:25;;;;;;;;;;;7.50;94.90;;;;;;5039815;28;19912;-83
2021/12/15 10:03:38;;;;;;;;;;;7.50;95.00;;;;;;5039652;28;19928;-82
2021/12/15 10:11:55;;;;;;;;;;;7.50;95.00;;;;;;5039607;28;19927;-83
2021/12/15 10:17:35;;;;;;;;;;;7.50;95.00;;;;;;5028567;28;19912;-83
2021/12/15 10:20:03;;;;;;;;;;;7.60;95.00;;;;;;5039253;28;20367;-83
2021/12/15 10:22:38;;;;;;;;;;;7.60;95.00;;;;;;5039275;28;19912;-83
2021/12/15 10:25:07;;;;;;;;;;;7.60;95.00;;;;;;5039535;28;19909;-83
2021/12/15 10:27:41;;;;;;;;;;;7.60;95.00;;;;;;5038851;28;20427;-83
2021/12/15 10:30:07;;;;;;;;;;;7.60;95.00;;;;;;5039374;28;19905;-82
2021/12/15 10:32:33;;;;;;;;;;;7.60;94.90;;;;;;5037498;28;20272;-82
2021/12/15 10:35:10;;;;;;;;;;;7.60;94.80;;;;;;5039323;28;20368;-82
2021/12/15 10:37:36;;;;;;;;;;;7.60;94.70;;;;;;5025557;28;19909;-82
2021/12/15 10:40:28;;;;;;;;;;;7.60;94.80;;;;;;5038940;28;19967;-83
2021/12/15 10:43:01;;;;;;;;;;;7.70;94.80;;;;;;5024532;28;19955;-83
2021/12/15 10:45:32;;;;;;;;;;;7.70;94.80;;;;;;5036752;28;19937;-82
2021/12/15 10:47:58;;;;;;;;;;;7.70;94.70;;;;;;5038910;28;19929;-82
2021/12/15 10:50:24;;;;;;;;;;;7.60;94.70;;;;;;5037611;28;19909;-83
2021/12/15 10:52:52;;;;;;;;;;;7.70;94.70;;;;;;5038830;28;19909;-83
2021/12/15 10:55:18;;;;;;;;;;;7.70;94.60;;;;;;5038539;28;19912;-83
2021/12/15 10:57:44;;;;;;;;;;;7.70;94.50;;;;;;5038576;28;19909;-83
2021/12/15 11:00:12;;;;;;;;;;;7.70;94.50;;;;;;5038452;28;19905;-83
2021/12/15 11:02:38;;;;;;;;;;;7.70;94.50;;;;;;5038823;28;20361;-83
2021/12/15 11:05:06;;;;;;;;;;;7.70;94.60;;;;;;5038743;28;19951;-83
2021/12/15 11:07:32;;;;;;;;;;;7.80;94.60;;;;;;5038523;28;20355;-83
2021/12/15 11:09:57;;;;;;;;;;;7.80;94.60;;;;;;5037195;28;19905;-83
2021/12/15 11:12:33;;;;;;;;;;;7.80;94.60;;;;;;5037204;28;19912;-83
2021/12/15 11:15:04;;;;;;;;;;;7.80;94.60;;;;;;5037148;28;20337;-83
2021/12/15 11:17:34;;;;;;;;;;;7.80;94.60;;;;;;5038567;28;19913;-83
2021/12/15 11:20:05;;;;;;;;;;;7.80;94.40;;;;;;5038090;28;19928;-83
2021/12/15 11:22:34;;;;;;;;;;;7.80;94.50;;;;;;5038062;28;19912;-83
2021/12/15 11:25:00;;;;;;;;;;;7.80;94.50;;;;;;5036900;28;19905;-83
2021/12/15 11:27:26;;;;;;;;;;;7.90;94.50;;;;;;5038160;28;19905;-83
2021/12/15 11:29:52;;;;;;;;;;;7.90;94.50;;;;;;5038275;28;19975;-83
2021/12/15 11:32:36;;;;;;;;;;;7.90;94.40;;;;;;5037799;28;19941;-83
2021/12/15 11:35:07;;;;;;;;;;;7.90;94.50;;;;;;5038104;28;19905;-83
2021/12/15 11:37:55;;;;;;;;;;;7.90;94.40;;;;;;5023665;28;19998;-83
2021/12/15 11:40:42;;;;;;;;;;;7.90;94.40;;;;;;5036613;28;20281;-83
2021/12/15 11:43:08;;;;;;;;;;;7.90;94.30;;;;;;5026328;28;19912;-85
2021/12/15 11:45:38;;;;;;;;;;;7.90;94.20;;;;;;5036095;28;19991;-84
2021/12/15 11:48:11;;;;;;;;;;;7.90;94.30;;;;;;5037883;28;19949;-84
2021/12/15 11:50:38;;;;;;;;;;;8.00;94.30;;;;;;5036413;28;19996;-83
2021/12/15 11:53:04;;;;;;;;;;;8.00;94.20;;;;;;5037994;28;20615;-84
2021/12/15 11:55:31;;;;;;;;;;;8.00;94.20;;;;;;5036499;28;19909;-84
2021/12/15 11:57:56;;;;;;;;;;;8.00;94.10;;;;;;5036477;28;20272;-84
2021/12/15 12:00:23;;;;;;;;;;;8.00;94.00;;;;;;5036676;28;19912;-84
2021/12/15 12:02:54;;;;;;;;;;;8.00;94.10;;;;;;5036725;28;20368;-84
2021/12/15 12:05:25;;;;;;;;;;;8.00;94.00;;;;;;5037615;28;20360;-84
2021/12/15 12:07:54;;;;;;;;;;;8.00;94.10;;;;;;5036585;28;19904;-84
2021/12/15 12:10:24;;;;;;;;;;;8.00;94.10;;;;;;5037298;28;19999;-84
2021/12/15 12:13:02;;;;;;;;;;;8.00;94.10;;;;;;5037373;28;19915;-84
2021/12/15 12:15:28;;;;;;;;;;;8.00;94.10;;;;;;5036638;28;19927;-84
2021/12/15 12:17:55;;;;;;;;;;;8.00;93.90;;;;;;5037495;28;19905;-84
2021/12/15 12:20:21;;;;;;;;;;;8.00;94.10;;;;;;5038168;28;20419;-84
2021/12/15 12:22:48;;;;;;;;;;;8.00;94.10;;;;;;5040363;28;19963;-84
2021/12/15 12:25:15;;;;;;;;;;;8.00;94.40;;;;;;5040580;28;19962;-84
2021/12/15 12:27:42;;;;;;;;;;;8.10;94.20;;;;;;5041071;28;19905;-83
2021/12/15 12:30:11;;;;;;;;;;;8.00;94.10;;;;;;5041598;28;19912;-83
2021/12/15 12:32:36;;;;;;;;;;;8.10;93.90;;;;;;5041014;28;19909;-84
2021/12/15 12:35:04;;;;;;;;;;;8.00;93.70;;;;;;5041740;28;20346;-84
2021/12/15 12:37:30;;;;;;;;;;;8.00;93.90;;;;;;5028233;28;20028;-84
2021/12/15 12:39:58;;;;;;;;;;;8.00;93.80;;;;;;5039830;28;19936;-83
2021/12/15 12:42:38;;;;;;;;;;;8.00;93.90;;;;;;5040800;28;19905;-84
2021/12/15 12:45:13;;;;;;;;;;;8.00;93.80;;;;;;5038015;28;19905;-85
2021/12/15 12:47:46;;;;;;;;;;;8.00;93.80;;;;;;5041183;28;19905;-83
2021/12/15 12:50:53;;;;;;;;;;;8.00;93.70;;;;;;5041185;28;19928;-83
2021/12/15 12:59:28;;;;;;;;;;;8.00;94.00;;;;;;5027740;28;19912;-85
2021/12/15 13:01:55;;;;;;;;;;;8.10;94.10;;;;;;5040792;28;20444;-84
2021/12/15 13:04:21;;;;;;;;;;;8.10;94.30;;;;;;5040893;28;19905;-84
2021/12/15 13:06:47;;;;;;;;;;;8.10;94.10;;;;;;5040704;28;19951;-85
2021/12/15 13:09:17;;;;;;;;;;;8.10;93.90;;;;;;5039175;28;19911;-84
2021/12/15 13:11:47;;;;;;;;;;;8.20;93.80;;;;;;5040392;28;20283;-84
2021/12/15 13:14:31;;;;;;;;;;;8.20;93.80;;;;;;5040554;28;19916;-84
2021/12/15 13:16:58;;;;;;;;;;;8.20;93.70;;;;;;5028227;28;19912;-85
2021/12/15 13:19:24;;;;;;;;;;;8.20;93.80;;;;;;5040511;28;19958;-85
2021/12/15 13:21:59;;;;;;;;;;;8.20;93.80;;;;;;5040703;28;19905;-85
2021/12/15 13:30:37;;;;;;;;;;;8.20;93.60;;;;;;5040381;28;19928;-84
2021/12/15 13:33:12;;;;;;;;;;;8.20;93.60;;;;;;5037679;28;19959;-84
2021/12/15 13:35:43;;;;;;;;;;;8.20;93.70;;;;;;5040312;28;19905;-84
2021/12/15 13:38:10;;;;;;;;;;;8.20;93.70;;;;;;5027541;28;20026;-85
2021/12/15 13:40:50;;;;;;;;;;;8.20;93.50;;;;;;5040215;28;19939;-85
2021/12/15 13:43:34;;;;;;;;;;;8.20;93.50;;;;;;5039928;28;19909;-84
2021/12/15 13:46:00;;;;;;;;;;;8.20;93.50;;;;;;5038764;28;20375;-85
2021/12/15 13:48:45;;;;;;;;;;;8.20;93.60;;;;;;5039995;28;19905;-85
2021/12/15 13:51:11;;;;;;;;;;;8.20;93.60;;;;;;5028642;28;19927;-85
2021/12/15 13:53:36;;;;;;;;;;;8.20;93.60;;;;;;5039734;28;19916;-84
2021/12/15 13:56:04;;;;;;;;;;;8.20;93.50;;;;;;5039822;28;19912;-84
2021/12/15 13:58:31;;;;;;;;;;;8.20;93.50;;;;;;5039408;28;20001;-84
2021/12/15 14:00:56;;;;;;;;;;;8.20;93.50;;;;;;5039822;28;19905;-84
2021/12/15 14:03:22;;;;;;;;;;;8.20;93.50;;;;;;5039692;28;20418;-84
2021/12/15 14:06:03;;;;;;;;;;;8.20;93.50;;;;;;5040002;28;19906;-84
2021/12/15 14:08:28;;;;;;;;;;;8.20;93.40;;;;;;5038477;28;19905;-84
2021/12/15 14:10:54;;;;;;;;;;;8.20;93.30;;;;;;5038423;28;19916;-84
2021/12/15 14:13:21;;;;;;;;;;;8.20;93.30;;;;;;5039032;28;19916;-84
2021/12/15 14:15:47;;;;;;;;;;;8.20;93.40;;;;;;5038483;28;19905;-84
2021/12/15 14:18:13;;;;;;;;;;;8.20;93.40;;;;;;5039348;28;19905;-85
2021/12/15 14:20:45;;;;;;;;;;;8.20;93.40;;;;;;5039445;28;19905;-84
2021/12/15 14:23:12;;;;;;;;;;;8.20;93.50;;;;;;5039192;28;19905;-84
2021/12/15 14:25:38;;;;;;;;;;;8.20;93.60;;;;;;5039212;28;19905;-84
2021/12/15 14:28:06;;;;;;;;;;;8.20;93.60;;;;;;5038908;28;19979;-84
2021/12/15 14:30:32;;;;;;;;;;;8.20;93.60;;;;;;5039313;28;19904;-84
2021/12/15 14:32:57;;;;;;;;;;;8.20;93.60;;;;;;5039220;28;20402;-84
2021/12/15 14:35:24;;;;;;;;;;;8.10;93.70;;;;;;5039038;28;19951;-84
2021/12/15 14:37:50;;;;;;;;;;;8.20;93.80;;;;;;5025678;28;19905;-85
2021/12/15 14:40:15;;;;;;;;;;;8.20;93.80;;;;;;5038884;28;19972;-84
2021/12/15 14:42:45;;;;;;;;;;;8.20;93.80;;;;;;5038484;28;20015;-84
2021/12/15 14:45:12;;;;;;;;;;;8.20;93.60;;;;;;5036615;28;19911;-84
2021/12/15 14:47:39;;;;;;;;;;;8.20;93.60;;;;;;5037615;28;20352;-85
2021/12/15 14:50:15;;;;;;;;;;;8.10;93.50;;;;;;5038892;28;19909;-85
2021/12/15 14:52:46;;;;;;;;;;;8.10;93.60;;;;;;5038860;28;19909;-85
2021/12/15 14:55:14;;;;;;;;;;;8.10;93.60;;;;;;5038716;28;19919;-85
2021/12/15 14:57:40;;;;;;;;;;;8.10;93.40;;;;;;5038580;28;19933;-85
2021/12/15 15:00:05;;;;;;;;;;;8.10;93.40;;;;;;5038526;28;19912;-85
2021/12/15 15:02:32;;;;;;;;;;;8.10;93.30;;;;;;5038606;28;19968;-85
2021/12/15 15:05:00;;;;;;;;;;;8.10;93.40;;;;;;5037053;28;20284;-85
2021/12/15 15:07:28;;;;;;;;;;;8.10;93.50;;;;;;5038622;28;19928;-85
2021/12/15 15:09:55;;;;;;;;;;;8.10;93.50;;;;;;5037853;28;20002;-85
2021/12/15 15:12:25;;;;;;;;;;;8.10;93.40;;;;;;5038127;28;19905;-84
2021/12/15 15:15:01;;;;;;;;;;;8.10;93.50;;;;;;5038260;28;19905;-85
2021/12/15 15:17:29;;;;;;;;;;;8.00;93.50;;;;;;5038442;28;19909;-85
2021/12/15 15:19:56;;;;;;;;;;;8.00;93.40;;;;;;5038065;28;19948;-85
2021/12/15 15:22:24;;;;;;;;;;;8.00;93.40;;;;;;5036901;28;19912;-85
2021/12/15 15:24:51;;;;;;;;;;;8.00;93.40;;;;;;5037915;28;19953;-85
2021/12/15 15:27:17;;;;;;;;;;;8.00;93.40;;;;;;5036972;28;19905;-85
2021/12/15 15:29:45;;;;;;;;;;;8.00;93.50;;;;;;5037941;28;19909;-85
2021/12/15 15:32:15;;;;;;;;;;;8.00;93.40;;;;;;5037945;28;19913;-85
2021/12/15 15:34:42;;;;;;;;;;;8.00;93.40;;;;;;5037848;28;20011;-85
2021/12/15 15:37:17;;;;;;;;;;;8.00;93.50;;;;;;5026092;28;20352;-85
2021/12/15 15:39:43;;;;;;;;;;;8.00;93.50;;;;;;5036793;28;20408;-85
2021/12/15 15:42:17;;;;;;;;;;;8.00;93.40;;;;;;5036222;28;19963;-85
2021/12/15 15:44:43;;;;;;;;;;;7.90;93.40;;;;;;5034699;28;20000;-85
2021/12/15 15:47:16;;;;;;;;;;;7.90;93.50;;;;;;5037848;28;19948;-85
2021/12/15 15:49:56;;;;;;;;;;;7.90;93.50;;;;;;5038290;28;19905;-85
2021/12/15 15:52:22;;;;;;;;;;;7.90;93.40;;;;;;5036525;28;19905;-85
2021/12/15 15:54:48;;;;;;;;;;;7.90;93.40;;;;;;5037480;28;19905;-85